aviador You're here:

LEVC Decoded Metar

VALENCIA in SPAIN
Report Time2014-10-26 07:30:00
UTC Time2014-10-26 07:38:38
Flight Rules vfr VFR
WindVRB at 02 kt
Visibility9999 m
Phenomena:N/A
Clouds:N/A
Expected CloudBase > 2,800 ft AGL from Temp-Dew spread
CeilingNone
Temp16°C (ISA +1)
Dew Point09°C (63% RH)
AAT15.1°C
QNH1022 hPa
Density Alt220 ft
Elevation203 ft
Report Wrong Elevation
Raw Report
METAR LEVC 260730Z VRB02KT CAVOK 16/09 Q1022 NOSIG=

Flight School in Barcelona

Extra information for LEVC:More info

Metar Taf Metar & Taf Last 4 Metars F.Rules Stats Wind Profile Meteogram Temp Stats Airport Information Weather charts Add Link Nearby VenuesMetar ALERT Operation Metar Decoded Social comments

Webcam Valencia